Finksburg, Maryland
Current Conditions -  °F | °C
As of 3:25 AM on Tuesday 21 Oct 2014 (Local Time) from KDMW Reporting Station
Light Rain Light Rain  
Wind Chill: 54°   Ceiling: 10000
Heat Index: 54°   Visibility: 10mi
Dew Point: 50°   Wind: 3mph
Humidity: 88%   Direction: 170°S
Pressure: 29.87"   Gusts: NA
Location:  39.49°N, 76.89°W
Report Text: KDMW 210725Z AUTO 17003KT 10SM -RA SCT070 SCT075 OVC100 12/10 A2987 RMK AO2
Loading
Personal Weather Stations






























Interactive Weather Map
Tropical Storm Tracking
New forecast layout! Learn more

10-Day Weather Forecast

Advertisements
Track Severe Weather on mobile